Time;durP1;ratioP1;P1;durP2;ratioP2;P2;SDS_P1;SDS_P2;PMS_P1;PMS_P2;Temp;Humidity;BMP_temperature;BMP_pressure;BME280_temperature;BME280_humidity;BME280_pressure;Samples;Min_cycle;Max_cycle;Signal;HPM_P1;HPM_P2
2024/04/09 00:00:51;;;;;;;5.20;4.70;;;13.00;99.90;;;;;;5302256;26;20482;-61
2024/04/09 00:03:21;;;;;;;5.03;4.53;;;13.00;99.90;;;;;;5295912;26;20581;-62
2024/04/09 00:05:48;;;;;;;5.00;4.40;;;13.00;99.90;;;;;;5298995;26;20592;-61
2024/04/09 00:08:19;;;;;;;7.10;4.80;;;13.00;99.90;;;;;;5288462;26;20490;-62
2024/04/09 00:10:47;;;;;;;5.27;4.77;;;13.10;99.90;;;;;;5293306;26;20490;-61
2024/04/09 00:13:17;;;;;;;4.87;4.40;;;13.10;99.90;;;;;;5295954;26;20503;-62
2024/04/09 00:15:47;;;;;;;5.67;4.90;;;13.10;99.90;;;;;;5297093;26;20482;-62
2024/04/09 00:18:17;;;;;;;5.87;4.47;;;13.10;99.90;;;;;;5296247;26;22471;-62
2024/04/09 00:20:48;;;;;;;5.70;4.80;;;13.10;99.90;;;;;;5298646;26;20588;-62
2024/04/09 00:23:18;;;;;;;6.47;5.27;;;13.10;99.90;;;;;;5299908;26;20922;-62
2024/04/09 00:25:46;;;;;;;7.07;4.73;;;13.10;99.90;;;;;;5293276;26;21939;-62
2024/04/09 00:28:16;;;;;;;6.57;5.97;;;13.10;99.90;;;;;;5293486;26;20519;-60
2024/04/09 00:30:46;;;;;;;5.60;5.10;;;13.10;99.90;;;;;;5301507;26;20471;-61
2024/04/09 00:33:17;;;;;;;6.90;5.30;;;13.10;99.90;;;;;;5300730;26;20486;-62
2024/04/09 00:35:47;;;;;;;8.30;4.97;;;13.20;99.90;;;;;;5300748;26;20558;-61
2024/04/09 00:38:19;;;;;;;9.10;5.53;;;13.20;99.90;;;;;;5299522;26;20524;-61
2024/04/09 00:40:47;;;;;;;6.73;5.07;;;13.20;99.90;;;;;;5300339;26;20487;-62
2024/04/09 00:43:17;;;;;;;6.57;4.93;;;13.20;99.90;;;;;;5297352;26;20690;-62
2024/04/09 00:45:49;;;;;;;5.80;5.30;;;13.20;99.90;;;;;;5291608;26;20841;-61
2024/04/09 00:48:19;;;;;;;7.40;6.00;;;13.20;99.90;;;;;;5300293;26;20487;-61
2024/04/09 00:50:46;;;;;;;6.23;5.07;;;13.30;99.90;;;;;;5287177;26;20550;-62
2024/04/09 00:53:17;;;;;;;6.33;5.70;;;13.30;99.90;;;;;;5289718;26;20494;-62
2024/04/09 00:55:49;;;;;;;6.33;5.70;;;13.20;99.90;;;;;;5278818;26;20950;-62
2024/04/09 00:58:20;;;;;;;6.20;5.00;;;13.20;99.90;;;;;;5290446;26;20487;-62
2024/04/09 01:00:52;;;;;;;6.30;5.10;;;13.20;99.90;;;;;;5298351;26;20987;-62
2024/04/09 01:03:23;;;;;;;6.20;5.00;;;13.20;99.90;;;;;;5297710;26;20602;-62
2024/04/09 01:05:52;;;;;;;9.90;5.70;;;13.20;99.90;;;;;;5300207;26;21015;-62
2024/04/09 01:08:22;;;;;;;5.97;4.60;;;13.20;99.90;;;;;;5297830;26;20483;-62
2024/04/09 01:10:50;;;;;;;6.50;5.53;;;13.20;99.90;;;;;;5300018;26;20583;-62
2024/04/09 01:13:20;;;;;;;6.80;5.50;;;13.20;99.90;;;;;;5292502;26;21019;-62
2024/04/09 01:15:50;;;;;;;6.10;5.50;;;13.20;99.90;;;;;;5300291;26;20932;-62
2024/04/09 01:18:19;;;;;;;5.30;4.80;;;13.10;99.90;;;;;;5297603;26;20487;-62
2024/04/09 01:20:47;;;;;;;5.80;4.90;;;13.10;99.90;;;;;;5301579;26;20552;-62
2024/04/09 01:23:19;;;;;;;6.63;5.20;;;13.10;99.90;;;;;;5296703;26;21259;-62
2024/04/09 01:25:46;;;;;;;7.90;5.27;;;13.10;99.90;;;;;;5301495;26;20491;-62
2024/04/09 01:28:16;;;;;;;5.70;5.10;;;13.10;99.90;;;;;;5296622;26;21035;-60
2024/04/09 01:30:43;;;;;;;6.27;5.07;;;13.10;99.90;;;;;;5295200;26;20467;-61
2024/04/09 01:33:13;;;;;;;5.73;5.20;;;13.10;99.90;;;;;;5292282;26;20546;-62
2024/04/09 01:35:41;;;;;;;8.97;6.33;;;13.10;99.90;;;;;;5296380;26;20537;-62
2024/04/09 01:38:10;;;;;;;6.90;6.27;;;13.10;99.90;;;;;;5295012;26;20542;-62
2024/04/09 01:40:40;;;;;;;6.20;5.70;;;13.10;99.90;;;;;;5298146;26;20527;-62
2024/04/09 01:43:11;;;;;;;6.93;6.10;;;13.20;99.90;;;;;;5295260;26;20550;-60
2024/04/09 01:45:38;;;;;;;7.70;6.30;;;13.20;99.90;;;;;;5297587;26;20482;-62
2024/04/09 01:48:12;;;;;;;7.30;6.60;;;13.30;99.90;;;;;;5296616;26;20479;-61
2024/04/09 01:50:39;;;;;;;7.97;6.47;;;13.30;99.90;;;;;;5299945;26;20493;-62
2024/04/09 01:53:09;;;;;;;7.27;6.47;;;13.30;99.90;;;;;;5296683;26;21015;-61
2024/04/09 01:55:36;;;;;;;6.87;6.17;;;13.40;99.90;;;;;;5295653;26;20873;-61
2024/04/09 01:58:11;;;;;;;8.90;6.80;;;13.40;99.90;;;;;;5291193;26;20486;-62
2024/04/09 02:00:38;;;;;;;8.73;7.30;;;13.50;99.90;;;;;;5279992;26;20482;-62
2024/04/09 02:03:08;;;;;;;9.90;7.00;;;13.50;99.90;;;;;;5278841;26;20555;-62
2024/04/09 02:05:39;;;;;;;8.07;7.10;;;13.60;99.90;;;;;;5294783;26;20571;-61
2024/04/09 02:08:06;;;;;;;6.00;5.50;;;13.60;99.90;;;;;;5281714;26;20552;-61
2024/04/09 02:10:36;;;;;;;6.90;5.93;;;13.60;99.90;;;;;;5283772;26;20491;-61
2024/04/09 02:13:03;;;;;;;6.60;5.80;;;13.60;99.90;;;;;;5277090;26;20938;-62
2024/04/09 02:15:36;;;;;;;5.70;5.13;;;13.60;99.90;;;;;;5287749;26;20835;-61
2024/04/09 02:18:04;;;;;;;7.10;6.40;;;13.60;99.90;;;;;;5295028;26;20534;-62
2024/04/09 02:20:33;;;;;;;6.07;5.47;;;13.60;99.90;;;;;;5285483;26;20494;-62
2024/04/09 02:23:01;;;;;;;9.33;6.80;;;13.60;99.90;;;;;;5284532;26;22054;-59
2024/04/09 02:25:30;;;;;;;9.90;6.40;;;13.70;99.90;;;;;;5279761;26;20913;-61
2024/04/09 02:27:58;;;;;;;8.37;6.37;;;13.70;99.90;;;;;;5289865;26;21958;-61
2024/04/09 02:30:28;;;;;;;11.10;7.07;;;13.80;99.90;;;;;;5292369;26;20479;-61
2024/04/09 02:32:58;;;;;;;6.47;5.53;;;13.80;99.90;;;;;;5293089;26;20543;-61
2024/04/09 02:35:28;;;;;;;5.30;4.80;;;13.80;99.90;;;;;;5297824;26;20610;-61
2024/04/09 02:37:57;;;;;;;8.10;5.70;;;13.90;99.90;;;;;;5293894;26;20550;-61
2024/04/09 02:40:27;;;;;;;7.27;6.30;;;13.90;99.90;;;;;;5299036;26;20487;-61
2024/04/09 02:42:56;;;;;;;6.60;5.70;;;13.90;99.90;;;;;;5297431;26;21103;-60
2024/04/09 02:45:26;;;;;;;6.57;5.53;;;13.80;99.90;;;;;;5297873;26;20543;-61
2024/04/09 02:47:53;;;;;;;6.43;5.73;;;13.70;99.90;;;;;;5285704;26;20514;-61
2024/04/09 02:50:26;;;;;;;8.13;5.30;;;13.70;99.90;;;;;;5287007;26;20482;-60
2024/04/09 02:52:53;;;;;;;7.90;5.53;;;13.70;99.90;;;;;;5285088;26;20722;-60
2024/04/09 02:55:23;;;;;;;13.23;6.40;;;13.70;99.90;;;;;;5282336;26;20539;-60
2024/04/09 02:57:50;;;;;;;8.53;6.10;;;13.70;99.90;;;;;;5290856;26;20547;-60
2024/04/09 03:00:21;;;;;;;7.90;6.93;;;13.70;99.90;;;;;;5273491;26;20543;-61
2024/04/09 03:02:50;;;;;;;7.90;6.10;;;13.70;99.90;;;;;;5283018;26;20849;-61
2024/04/09 03:05:20;;;;;;;8.83;6.13;;;13.70;99.90;;;;;;5290036;26;20487;-61
2024/04/09 03:07:52;;;;;;;7.57;6.43;;;13.70;99.90;;;;;;5282116;26;20479;-61
2024/04/09 03:10:22;;;;;;;9.30;6.77;;;13.80;99.90;;;;;;5290559;26;20491;-61
2024/04/09 03:12:49;;;;;;;9.60;7.10;;;13.80;99.90;;;;;;5286399;26;21067;-61
2024/04/09 03:15:19;;;;;;;8.30;6.63;;;13.90;99.90;;;;;;5288718;26;20507;-61
2024/04/09 03:17:46;;;;;;;7.53;6.10;;;14.00;99.90;;;;;;5282697;26;20491;-61
2024/04/09 03:20:16;;;;;;;10.37;6.90;;;14.00;99.90;;;;;;5293623;26;20483;-61
2024/04/09 03:22:43;;;;;;;8.10;6.90;;;14.10;99.90;;;;;;5288044;26;20601;-61
2024/04/09 03:25:17;;;;;;;7.97;7.17;;;14.10;99.90;;;;;;5283283;26;21036;-61
2024/04/09 03:27:44;;;;;;;7.33;6.73;;;14.10;99.90;;;;;;5281860;26;20539;-61
2024/04/09 03:30:14;;;;;;;7.43;6.83;;;14.10;99.90;;;;;;5270390;26;20622;-61
2024/04/09 03:32:41;;;;;;;8.17;6.87;;;14.10;99.90;;;;;;5280825;26;20572;-61
2024/04/09 03:35:11;;;;;;;8.23;7.43;;;14.20;99.90;;;;;;5291888;26;20487;-61
2024/04/09 03:37:41;;;;;;;8.63;7.60;;;14.20;99.90;;;;;;5274497;26;20551;-61
2024/04/09 03:40:11;;;;;;;8.23;7.43;;;14.20;99.90;;;;;;5283876;26;20479;-61
2024/04/09 03:42:43;;;;;;;7.70;6.90;;;14.30;99.90;;;;;;5274894;26;20566;-61
2024/04/09 03:45:11;;;;;;;8.40;7.60;;;14.30;99.90;;;;;;5283771;26;20492;-61
2024/04/09 03:47:41;;;;;;;8.57;6.60;;;14.30;99.90;;;;;;5290485;26;21155;-60
2024/04/09 03:50:08;;;;;;;7.97;7.00;;;14.30;99.90;;;;;;5286038;26;20499;-60
2024/04/09 03:52:38;;;;;;;8.60;7.70;;;14.40;99.90;;;;;;5280710;26;20494;-61
2024/04/09 03:55:05;;;;;;;7.67;6.97;;;14.40;99.90;;;;;;5274145;26;20560;-63
2024/04/09 03:57:36;;;;;;;8.60;7.60;;;14.40;99.90;;;;;;5275108;26;20570;-60
2024/04/09 04:00:11;;;;;;;8.47;7.30;;;14.50;99.90;;;;;;5270870;26;20980;-61
2024/04/09 04:02:42;;;;;;;8.30;7.43;;;14.50;99.90;;;;;;5271286;26;21259;-60
2024/04/09 04:05:12;;;;;;;9.73;6.57;;;14.50;99.90;;;;;;5282421;26;20547;-61
2024/04/09 04:07:39;;;;;;;9.10;6.90;;;14.50;99.90;;;;;;5284386;26;20566;-61
2024/04/09 04:10:09;;;;;;;7.87;7.00;;;14.50;99.90;;;;;;5274474;26;21260;-60
2024/04/09 04:12:38;;;;;;;8.03;7.20;;;14.50;99.90;;;;;;5284263;26;20526;-61
2024/04/09 04:15:12;;;;;;;9.50;8.27;;;14.50;99.90;;;;;;5287050;26;20558;-61
2024/04/09 04:17:39;;;;;;;8.60;7.47;;;14.50;99.90;;;;;;5290176;26;20614;-61
2024/04/09 04:20:10;;;;;;;9.30;7.23;;;14.60;99.90;;;;;;5289473;26;20542;-61
2024/04/09 04:22:37;;;;;;;8.33;7.53;;;14.60;99.90;;;;;;5288512;26;20506;-61
2024/04/09 04:25:07;;;;;;;10.33;7.60;;;14.60;99.90;;;;;;5290108;26;21059;-60
2024/04/09 04:27:34;;;;;;;8.37;6.80;;;14.60;99.90;;;;;;5294260;26;20541;-61
2024/04/09 04:30:05;;;;;;;8.13;7.43;;;14.60;99.90;;;;;;5291392;26;20483;-60
2024/04/09 04:32:35;;;;;;;13.10;8.27;;;14.60;99.90;;;;;;5285734;26;20486;-60
2024/04/09 04:35:05;;;;;;;8.80;7.93;;;14.70;99.90;;;;;;5292363;26;20598;-60
2024/04/09 04:37:33;;;;;;;11.27;8.60;;;14.70;99.90;;;;;;5293165;26;20506;-61
2024/04/09 04:40:03;;;;;;;9.63;8.50;;;14.70;99.90;;;;;;5291255;26;20528;-61
2024/04/09 04:42:31;;;;;;;8.90;7.87;;;14.80;99.90;;;;;;5292860;26;20494;-60
2024/04/09 04:45:01;;;;;;;10.83;7.53;;;14.80;99.90;;;;;;5293185;26;20500;-61
2024/04/09 04:47:29;;;;;;;8.33;7.70;;;14.70;99.90;;;;;;5295745;26;20483;-61
2024/04/09 04:50:01;;;;;;;9.60;8.60;;;14.70;99.90;;;;;;5278388;26;20502;-61
2024/04/09 04:52:28;;;;;;;12.80;7.90;;;14.70;99.90;;;;;;5263256;26;21092;-61
2024/04/09 04:54:58;;;;;;;10.80;8.43;;;14.70;99.90;;;;;;5271685;26;20527;-59
2024/04/09 04:57:25;;;;;;;11.83;7.70;;;14.70;99.90;;;;;;5276514;26;20534;-61
2024/04/09 04:59:56;;;;;;;8.60;7.70;;;14.70;99.90;;;;;;5276406;26;20597;-61
2024/04/09 05:02:24;;;;;;;10.23;8.27;;;14.80;99.90;;;;;;5264541;26;20479;-61
2024/04/09 05:04:55;;;;;;;10.17;8.20;;;14.80;99.90;;;;;;5277750;26;20974;-61
2024/04/09 05:07:25;;;;;;;13.10;8.57;;;14.80;99.90;;;;;;5270600;26;20851;-60
2024/04/09 05:09:55;;;;;;;12.93;8.33;;;14.80;99.90;;;;;;5272272;26;20602;-60
2024/04/09 05:12:22;;;;;;;7.93;7.17;;;14.80;99.90;;;;;;5264641;26;21004;-61
2024/04/09 05:14:52;;;;;;;9.53;8.40;;;14.90;99.90;;;;;;5274249;26;21153;-62
2024/04/09 05:17:19;;;;;;;9.10;8.10;;;14.90;99.90;;;;;;5285115;26;20502;-60
2024/04/09 05:19:50;;;;;;;10.30;8.17;;;15.00;99.90;;;;;;5269855;26;20541;-61
2024/04/09 05:22:19;;;;;;;10.57;8.23;;;15.00;99.90;;;;;;5256391;26;21047;-59
2024/04/09 05:24:51;;;;;;;10.20;8.53;;;15.00;99.90;;;;;;5275270;26;20483;-60
2024/04/09 05:27:19;;;;;;;9.43;8.47;;;15.00;99.90;;;;;;5275479;26;20531;-61
2024/04/09 05:29:49;;;;;;;9.37;8.47;;;15.00;99.90;;;;;;5280236;26;20518;-61
2024/04/09 05:32:16;;;;;;;12.20;8.53;;;15.10;99.90;;;;;;5284016;26;20481;-61
2024/04/09 05:34:46;;;;;;;11.47;8.77;;;15.10;99.90;;;;;;5268885;26;20605;-61
2024/04/09 05:37:13;;;;;;;9.43;8.00;;;15.20;99.90;;;;;;5270394;26;22713;-59
2024/04/09 05:39:45;;;;;;;13.40;8.93;;;15.20;99.90;;;;;;5268036;26;20579;-61
2024/04/09 05:42:15;;;;;;;12.13;8.27;;;15.30;99.90;;;;;;5286459;26;20483;-61
2024/04/09 05:44:45;;;;;;;10.23;7.47;;;15.40;99.90;;;;;;5290014;26;20550;-60
2024/04/09 05:47:13;;;;;;;12.63;8.03;;;15.50;99.90;;;;;;5284936;26;20928;-61
2024/04/09 05:49:43;;;;;;;9.17;8.20;;;15.60;99.90;;;;;;5288684;26;21532;-61
2024/04/09 05:52:10;;;;;;;8.40;7.57;;;15.60;99.90;;;;;;5289383;26;20502;-61
2024/04/09 05:54:43;;;;;;;12.83;7.80;;;15.60;99.90;;;;;;5278382;26;20486;-60
2024/04/09 05:57:10;;;;;;;16.17;8.47;;;15.60;99.90;;;;;;5269791;26;20542;-61
2024/04/09 05:59:43;;;;;;;9.20;7.90;;;15.60;99.90;;;;;;5278010;26;20602;-61
2024/04/09 06:02:10;;;;;;;12.17;7.10;;;15.70;99.90;;;;;;5276333;26;20478;-61
2024/04/09 06:04:40;;;;;;;9.30;7.80;;;15.70;99.90;;;;;;5266506;26;21281;-61
2024/04/09 06:07:07;;;;;;;9.63;7.83;;;15.70;99.90;;;;;;5282869;26;20545;-60
2024/04/09 06:09:37;;;;;;;12.47;7.73;;;15.70;99.90;;;;;;5287673;26;21104;-61
2024/04/09 06:12:04;;;;;;;12.10;7.90;;;15.70;99.90;;;;;;5277567;26;20517;-60
2024/04/09 06:14:34;;;;;;;11.53;7.87;;;15.70;99.90;;;;;;5289545;26;21096;-61
2024/04/09 06:17:04;;;;;;;11.67;7.93;;;15.80;99.90;;;;;;5288662;26;20475;-60
2024/04/09 06:19:34;;;;;;;9.83;7.40;;;15.80;99.90;;;;;;5280798;26;20910;-61
2024/04/09 06:22:01;;;;;;;13.30;7.27;;;15.80;99.90;;;;;;5286011;26;20602;-60
2024/04/09 06:24:31;;;;;;;9.80;7.03;;;15.90;99.90;;;;;;5294568;26;21104;-61
2024/04/09 06:26:59;;;;;;;9.10;7.50;;;15.90;99.90;;;;;;5296409;26;20475;-61
2024/04/09 06:29:30;;;;;;;9.50;7.83;;;15.90;99.90;;;;;;5298150;26;20633;-61
2024/04/09 06:31:57;;;;;;;13.50;7.63;;;15.90;99.90;;;;;;5298906;26;20486;-61
2024/04/09 06:34:30;;;;;;;9.33;8.40;;;15.90;99.90;;;;;;5294663;26;20542;-60
2024/04/09 06:37:00;;;;;;;13.10;8.80;;;15.90;99.90;;;;;;5294250;26;20483;-61
2024/04/09 06:39:30;;;;;;;14.03;8.13;;;16.00;99.90;;;;;;5298961;26;20471;-61
2024/04/09 06:41:59;;;;;;;12.00;7.20;;;16.00;99.90;;;;;;5298002;26;20539;-61
2024/04/09 06:44:29;;;;;;;10.27;7.90;;;16.10;99.90;;;;;;5297927;26;20598;-61
2024/04/09 06:46:56;;;;;;;12.97;8.13;;;16.10;99.90;;;;;;5298149;26;20471;-60
2024/04/09 06:49:26;;;;;;;9.17;7.60;;;16.10;99.90;;;;;;5282863;26;20478;-61
2024/04/09 06:51:56;;;;;;;8.30;7.40;;;16.20;99.90;;;;;;5286569;26;20543;-60
2024/04/09 06:54:26;;;;;;;11.03;7.33;;;16.20;99.90;;;;;;5281457;26;20535;-61
2024/04/09 06:56:53;;;;;;;13.73;8.27;;;16.20;99.90;;;;;;5273678;26;20483;-61
2024/04/09 06:59:25;;;;;;;9.73;7.00;;;16.20;99.90;;;;;;5269907;26;20551;-61
2024/04/09 07:01:52;;;;;;;13.50;7.33;;;16.20;99.90;;;;;;5293882;26;20550;-61
2024/04/09 07:04:22;;;;;;;8.53;7.43;;;16.20;99.90;;;;;;5289428;26;20598;-61
2024/04/09 07:06:49;;;;;;;12.73;7.07;;;16.20;99.90;;;;;;5273958;26;21128;-61
2024/04/09 07:09:22;;;;;;;10.17;7.43;;;16.20;99.90;;;;;;5280334;26;20598;-62
2024/04/09 07:11:49;;;;;;;9.53;7.43;;;16.20;99.90;;;;;;5284090;26;20550;-61
2024/04/09 07:14:19;;;;;;;15.23;7.30;;;16.20;99.90;;;;;;5270376;26;21055;-61
2024/04/09 07:16:46;;;;;;;9.63;7.10;;;16.30;99.90;;;;;;5287952;26;20487;-60
2024/04/09 07:19:16;;;;;;;12.43;6.60;;;16.30;99.90;;;;;;5281465;26;20491;-60
2024/04/09 07:21:44;;;;;;;10.93;6.40;;;16.40;99.90;;;;;;5271836;26;20581;-61
2024/04/09 07:24:14;;;;;;;10.70;6.00;;;16.50;99.90;;;;;;5279934;26;20503;-61
2024/04/09 07:26:44;;;;;;;8.33;5.30;;;16.60;99.90;;;;;;5276396;26;20535;-60
2024/04/09 07:29:14;;;;;;;12.73;6.20;;;16.60;99.90;;;;;;5273483;26;20492;-62
2024/04/09 07:31:41;;;;;;;10.57;5.57;;;16.60;99.90;;;;;;5287764;26;20495;-61
2024/04/09 07:34:11;;;;;;;8.50;5.73;;;16.70;99.90;;;;;;5282289;26;20636;-61
2024/04/09 07:36:38;;;;;;;8.50;6.00;;;16.70;99.90;;;;;;5276257;26;20545;-61
2024/04/09 07:39:08;;;;;;;9.67;5.77;;;16.80;99.90;;;;;;5275100;26;20543;-61
2024/04/09 07:41:35;;;;;;;12.07;5.60;;;16.80;99.90;;;;;;5284013;26;20558;-61
2024/04/09 07:44:08;;;;;;;8.20;5.33;;;16.90;99.90;;;;;;5288463;26;20542;-61
2024/04/09 07:46:35;;;;;;;13.30;5.83;;;16.90;99.90;;;;;;5286133;26;20541;-60
2024/04/09 07:49:05;;;;;;;12.83;6.53;;;16.90;99.90;;;;;;5286108;26;20483;-60
2024/04/09 07:51:32;;;;;;;13.43;5.67;;;17.00;99.90;;;;;;5289015;26;20557;-61
2024/04/09 07:54:02;;;;;;;8.63;5.23;;;17.00;99.90;;;;;;5290378;26;20595;-61
2024/04/09 07:56:29;;;;;;;8.30;5.00;;;17.00;99.90;;;;;;5278348;26;21105;-62
2024/04/09 07:58:59;;;;;;;10.27;4.90;;;17.00;99.90;;;;;;5281586;26;20523;-60
2024/04/09 08:01:30;;;;;;;11.27;4.97;;;17.00;99.90;;;;;;5295029;26;20486;-62
2024/04/09 08:04:00;;;;;;;7.87;5.00;;;17.10;99.90;;;;;;5285866;26;20499;-60
2024/04/09 08:06:31;;;;;;;10.00;5.57;;;17.10;99.90;;;;;;5287227;26;20490;-61
2024/04/09 08:09:01;;;;;;;11.87;4.67;;;17.20;99.90;;;;;;5282357;26;21119;-61
2024/04/09 08:11:28;;;;;;;11.67;4.93;;;17.30;99.90;;;;;;5283834;26;20490;-60
2024/04/09 08:13:58;;;;;;;6.77;4.20;;;17.30;99.90;;;;;;5290073;26;20487;-60
2024/04/09 08:16:25;;;;;;;9.57;5.30;;;17.30;99.90;;;;;;5291649;26;20475;-62
2024/04/09 08:18:58;;;;;;;9.40;4.10;;;17.30;99.90;;;;;;5287854;26;20482;-61
2024/04/09 08:21:26;;;;;;;13.97;4.47;;;17.30;99.90;;;;;;5294395;26;22451;-61
2024/04/09 08:23:56;;;;;;;8.60;4.17;;;17.30;99.90;;;;;;5301037;26;20599;-62
2024/04/09 08:26:23;;;;;;;6.57;3.67;;;17.30;99.90;;;;;;5291972;26;20478;-61
2024/04/09 08:28:53;;;;;;;6.70;3.47;;;17.30;99.90;;;;;;5301542;26;20478;-62
2024/04/09 08:31:27;;;;;;;7.40;3.80;;;17.30;99.90;;;;;;5303380;26;20484;-62
2024/04/09 08:34:00;;;;;;;6.50;3.90;;;17.30;99.90;;;;;;5298822;26;20535;-62
2024/04/09 08:36:28;;;;;;;7.70;4.37;;;17.30;99.90;;;;;;5304009;26;20518;-61
2024/04/09 08:38:58;;;;;;;8.87;3.30;;;17.30;99.90;;;;;;5301884;26;20475;-61
2024/04/09 08:41:28;;;;;;;5.53;3.30;;;17.40;99.90;;;;;;5295286;26;21093;-61
2024/04/09 08:44:00;;;;;;;8.83;4.10;;;17.40;99.90;;;;;;5299399;26;20606;-61
2024/04/09 08:46:31;;;;;;;10.57;4.10;;;17.40;99.90;;;;;;5300963;26;20546;-61
2024/04/09 08:49:05;;;;;;;6.30;3.47;;;17.50;99.90;;;;;;5289083;26;20844;-61
2024/04/09 08:51:33;;;;;;;11.37;4.27;;;17.60;99.90;;;;;;5280456;26;20503;-60
2024/04/09 08:54:04;;;;;;;4.90;3.37;;;17.70;99.90;;;;;;5292694;26;20474;-61
2024/04/09 08:56:32;;;;;;;7.43;3.87;;;17.70;99.90;;;;;;5285466;26;20952;-62
2024/04/09 08:59:04;;;;;;;5.20;3.80;;;17.90;99.90;;;;;;5276549;26;21066;-60
2024/04/09 09:01:32;;;;;;;8.70;4.20;;;17.90;99.90;;;;;;5286154;26;20541;-61
2024/04/09 09:04:04;;;;;;;5.57;4.10;;;17.90;99.90;;;;;;5287524;26;20535;-61
2024/04/09 09:06:43;;;;;;;6.10;3.70;;;17.90;99.90;;;;;;5292737;26;20586;-60
2024/04/09 09:09:23;;;;;;;6.10;2.90;;;17.90;99.90;;;;;;5292975;26;20491;-61
2024/04/09 09:11:53;;;;;;;4.60;3.50;;;17.90;99.90;;;;;;5288758;26;20554;-62
2024/04/09 09:14:23;;;;;;;5.93;3.90;;;17.90;99.90;;;;;;5280407;26;20543;-61
2024/04/09 09:16:50;;;;;;;5.83;3.53;;;18.00;99.90;;;;;;5287033;26;20498;-62
2024/04/09 09:19:22;;;;;;;7.77;3.40;;;18.10;99.90;;;;;;5294700;26;20577;-62
2024/04/09 09:21:50;;;;;;;4.53;3.80;;;18.10;99.90;;;;;;5295555;26;20537;-61
2024/04/09 09:24:20;;;;;;;5.90;3.60;;;18.20;99.90;;;;;;5281851;26;20483;-61
2024/04/09 09:26:48;;;;;;;4.60;3.27;;;18.30;99.90;;;;;;5275779;26;20483;-61
2024/04/09 09:29:18;;;;;;;7.67;4.10;;;18.40;99.90;;;;;;5279452;26;20529;-61
2024/04/09 09:31:45;;;;;;;6.53;3.80;;;18.50;99.90;;;;;;5290953;26;20483;-61
2024/04/09 09:34:19;;;;;;;5.70;3.43;;;18.50;99.90;;;;;;5291161;26;20491;-61
2024/04/09 09:36:50;;;;;;;5.10;3.50;;;18.50;99.90;;;;;;5297707;26;20490;-61
2024/04/09 09:39:20;;;;;;;4.30;3.30;;;18.50;99.90;;;;;;5294553;26;20532;-61
2024/04/09 09:41:49;;;;;;;5.73;3.43;;;18.50;99.90;;;;;;5275880;26;20547;-62
2024/04/09 09:44:19;;;;;;;4.57;3.63;;;18.60;99.90;;;;;;5275908;26;20483;-62
2024/04/09 09:46:48;;;;;;;4.20;2.90;;;18.60;99.90;;;;;;5280669;26;20486;-61
2024/04/09 09:49:19;;;;;;;4.60;3.07;;;18.70;99.90;;;;;;5278237;26;20491;-60
2024/04/09 09:51:51;;;;;;;4.03;2.57;;;18.60;99.90;;;;;;5275132;26;21223;-62
2024/04/09 09:54:22;;;;;;;4.90;2.80;;;18.70;99.90;;;;;;5273294;26;20530;-60
2024/04/09 09:56:51;;;;;;;3.93;3.23;;;18.70;99.90;;;;;;5272987;26;22035;-60
2024/04/09 09:59:23;;;;;;;6.83;3.00;;;18.60;99.90;;;;;;5275999;26;21043;-60
2024/04/09 10:01:53;;;;;;;5.77;3.47;;;18.50;99.90;;;;;;5276626;26;20483;-62
2024/04/09 10:04:24;;;;;;;6.13;3.60;;;18.40;99.90;;;;;;5279483;26;20475;-62
2024/04/09 10:06:59;;;;;;;4.87;3.50;;;18.30;99.90;;;;;;5276855;26;20479;-61
2024/04/09 10:09:40;;;;;;;4.00;3.07;;;18.20;99.90;;;;;;5293084;26;20478;-62
2024/04/09 10:12:19;;;;;;;3.33;3.03;;;18.20;99.90;;;;;;5278303;26;20483;-61
2024/04/09 10:14:57;;;;;;;5.07;3.63;;;18.20;99.90;;;;;;5291163;26;20486;-62
2024/04/09 10:17:29;;;;;;;4.53;3.33;;;18.10;99.90;;;;;;5285329;26;20542;-61
2024/04/09 10:19:59;;;;;;;4.53;3.30;;;18.00;99.90;;;;;;5285856;26;21203;-62
2024/04/09 10:22:29;;;;;;;6.83;3.80;;;18.00;99.90;;;;;;5274283;26;20486;-60
2024/04/09 10:25:00;;;;;;;5.10;4.13;;;17.90;99.90;;;;;;5297146;26;20494;-62
2024/04/09 10:27:27;;;;;;;4.60;4.17;;;17.90;99.90;;;;;;5296762;26;20531;-61
2024/04/09 10:29:57;;;;;;;5.97;4.23;;;17.90;99.90;;;;;;5303837;26;20527;-61
2024/04/09 10:32:24;;;;;;;4.50;4.10;;;18.00;99.90;;;;;;5299448;26;20530;-61
2024/04/09 10:34:56;;;;;;;7.60;5.30;;;18.00;99.90;;;;;;5297539;26;20750;-62
2024/04/09 10:37:26;;;;;;;6.40;5.80;;;17.90;99.90;;;;;;5301796;26;20518;-62
2024/04/09 10:39:59;;;;;;;8.40;4.93;;;17.80;99.90;;;;;;5303594;26;20522;-61
2024/04/09 10:42:26;;;;;;;6.87;5.03;;;17.80;99.90;;;;;;5296552;26;20949;-62
2024/04/09 10:44:56;;;;;;;6.03;5.47;;;17.70;99.90;;;;;;5304173;26;21051;-61
2024/04/09 10:47:24;;;;;;;7.00;5.50;;;17.60;99.90;;;;;;5280266;26;20797;-62
2024/04/09 10:49:54;;;;;;;6.67;5.97;;;17.60;99.90;;;;;;5279698;26;21885;-61
2024/04/09 10:52:22;;;;;;;7.43;6.10;;;17.60;99.90;;;;;;5274031;26;20896;-62
2024/04/09 10:54:51;;;;;;;6.27;5.67;;;17.50;99.90;;;;;;5278113;26;20514;-61
2024/04/09 10:57:21;;;;;;;6.50;5.10;;;17.50;99.90;;;;;;5266191;26;20779;-61
2024/04/09 10:59:51;;;;;;;7.47;5.90;;;17.40;99.90;;;;;;5278644;26;20478;-61
2024/04/09 11:02:18;;;;;;;6.60;6.00;;;17.40;99.90;;;;;;5272190;26;22273;-61
2024/04/09 11:04:49;;;;;;;6.30;5.70;;;17.50;99.90;;;;;;5282717;26;20542;-62
2024/04/09 11:07:18;;;;;;;6.00;5.40;;;17.50;99.90;;;;;;5273989;26;21091;-60
2024/04/09 11:09:47;;;;;;;5.83;5.33;;;17.50;99.90;;;;;;5271520;26;21103;-61
2024/04/09 11:12:15;;;;;;;5.87;5.00;;;17.50;99.90;;;;;;5270826;26;20478;-62
2024/04/09 11:14:48;;;;;;;6.80;5.40;;;17.60;99.90;;;;;;5274069;26;21380;-62
2024/04/09 11:17:18;;;;;;;6.93;6.27;;;17.60;99.90;;;;;;5283155;26;21065;-60
2024/04/09 11:19:48;;;;;;;5.63;5.13;;;17.50;99.90;;;;;;5268131;26;20496;-62
2024/04/09 11:22:17;;;;;;;6.27;5.77;;;17.60;99.90;;;;;;5257478;26;20537;-62
2024/04/09 11:24:46;;;;;;;7.40;6.70;;;17.50;99.90;;;;;;5266910;26;20895;-61
2024/04/09 11:27:14;;;;;;;6.73;6.03;;;17.50;99.90;;;;;;5271612;26;20536;-61
2024/04/09 11:29:51;;;;;;;6.13;5.53;;;17.40;99.90;;;;;;5262207;26;20861;-61
2024/04/09 11:32:19;;;;;;;6.60;5.80;;;17.40;99.90;;;;;;5258801;26;21616;-60
2024/04/09 11:34:48;;;;;;;5.63;5.13;;;17.30;99.90;;;;;;5275317;26;20486;-61
2024/04/09 11:37:21;;;;;;;6.53;5.83;;;17.30;99.90;;;;;;5279008;26;20535;-61
2024/04/09 11:39:51;;;;;;;6.87;6.17;;;17.30;99.90;;;;;;5269745;26;21039;-60
2024/04/09 11:42:19;;;;;;;7.80;7.10;;;17.30;99.90;;;;;;5268406;26;21248;-60
2024/04/09 11:45:01;;;;;;;7.67;6.97;;;17.30;99.90;;;;;;5272621;26;20479;-61
2024/04/09 11:47:28;;;;;;;6.77;6.27;;;17.30;99.90;;;;;;5277601;26;20831;-62
2024/04/09 11:49:58;;;;;;;7.57;6.87;;;17.20;99.90;;;;;;5275687;26;20550;-62
2024/04/09 11:52:26;;;;;;;7.77;6.73;;;17.20;99.90;;;;;;5267402;26;20491;-62
2024/04/09 11:54:55;;;;;;;7.80;6.80;;;17.20;99.90;;;;;;5286003;26;20606;-61
2024/04/09 11:57:23;;;;;;;9.73;7.40;;;17.30;99.90;;;;;;5289646;26;20550;-61
2024/04/09 11:59:55;;;;;;;7.47;6.80;;;17.40;99.90;;;;;;5277309;26;20494;-60
2024/04/09 12:02:23;;;;;;;7.37;6.77;;;17.40;99.90;;;;;;5273071;26;20491;-62
2024/04/09 12:04:52;;;;;;;7.37;6.70;;;17.30;99.90;;;;;;5281676;26;20483;-61
2024/04/09 12:07:20;;;;;;;7.90;6.40;;;17.30;99.90;;;;;;5281771;26;20483;-62
2024/04/09 12:09:50;;;;;;;8.13;7.30;;;17.30;99.90;;;;;;5284766;26;20483;-61
2024/04/09 12:12:17;;;;;;;8.00;7.40;;;17.30;99.90;;;;;;5285860;26;20588;-61
2024/04/09 12:14:48;;;;;;;7.97;7.20;;;17.30;99.90;;;;;;5283897;26;20603;-62
2024/04/09 12:17:17;;;;;;;7.67;7.00;;;17.20;99.90;;;;;;5290227;26;20890;-61
2024/04/09 12:19:50;;;;;;;6.87;6.37;;;17.20;99.90;;;;;;5275839;26;20502;-59
2024/04/09 12:22:18;;;;;;;7.03;6.53;;;17.10;99.90;;;;;;5287716;26;20579;-61
2024/04/09 12:24:48;;;;;;;8.70;7.00;;;17.20;99.90;;;;;;5283681;26;20809;-61
2024/04/09 12:27:15;;;;;;;6.40;5.90;;;17.10;99.90;;;;;;5296703;26;20586;-61
2024/04/09 12:29:45;;;;;;;6.87;6.37;;;17.00;99.90;;;;;;5300824;26;20525;-61
2024/04/09 12:32:13;;;;;;;7.27;6.57;;;17.00;99.90;;;;;;5294420;26;20556;-61
2024/04/09 12:34:46;;;;;;;8.10;7.40;;;17.00;99.90;;;;;;5297866;26;20599;-62
2024/04/09 12:37:13;;;;;;;7.57;6.97;;;16.90;99.90;;;;;;5302682;26;20471;-62
2024/04/09 12:39:43;;;;;;;8.20;7.40;;;16.90;99.90;;;;;;5301592;26;20475;-61
2024/04/09 12:42:11;;;;;;;5.97;5.47;;;16.90;99.90;;;;;;5298123;26;20904;-60
2024/04/09 12:44:41;;;;;;;5.03;4.53;;;16.80;99.90;;;;;;5299394;26;20551;-61
2024/04/09 12:47:08;;;;;;;5.27;3.90;;;16.80;99.90;;;;;;5276286;26;20491;-60
2024/04/09 12:49:37;;;;;;;4.47;4.07;;;16.80;99.90;;;;;;5294903;26;20537;-60
2024/04/09 12:52:13;;;;;;;4.23;3.83;;;16.70;99.90;;;;;;5286752;26;20522;-60
2024/04/09 12:54:44;;;;;;;4.80;4.30;;;16.60;99.90;;;;;;5288085;26;20491;-61
2024/04/09 12:57:11;;;;;;;4.50;4.10;;;16.50;99.90;;;;;;5283687;26;20539;-61